sensor_id;sensor_type;location;lat;lon;timestamp;P1;durP1;ratioP1;P2;durP2;ratioP2
32094;SDS011;18608;53.688;10.748;2022-08-11T00:01:47;4.20;;;2.77;;
32094;SDS011;18608;53.688;10.748;2022-08-11T00:04:15;10.33;;;3.53;;
32094;SDS011;18608;53.688;10.748;2022-08-11T00:06:43;6.53;;;3.30;;
32094;SDS011;18608;53.688;10.748;2022-08-11T00:09:12;3.40;;;2.90;;
32094;SDS011;18608;53.688;10.748;2022-08-11T00:11:45;4.20;;;2.93;;
32094;SDS011;18608;53.688;10.748;2022-08-11T00:14:18;4.37;;;2.70;;
32094;SDS011;18608;53.688;10.748;2022-08-11T00:19:33;6.00;;;5.43;;
32094;SDS011;18608;53.688;10.748;2022-08-11T00:22:02;7.80;;;2.50;;
32094;SDS011;18608;53.688;10.748;2022-08-11T00:24:35;5.10;;;3.20;;
32094;SDS011;18608;53.688;10.748;2022-08-11T00:27:04;6.60;;;3.20;;
32094;SDS011;18608;53.688;10.748;2022-08-11T00:29:31;6.73;;;3.33;;
32094;SDS011;18608;53.688;10.748;2022-08-11T00:31:59;3.10;;;2.80;;
32094;SDS011;18608;53.688;10.748;2022-08-11T00:34:27;12.53;;;2.80;;
32094;SDS011;18608;53.688;10.748;2022-08-11T00:37:02;2.80;;;2.60;;
32094;SDS011;18608;53.688;10.748;2022-08-11T00:39:30;3.93;;;3.13;;
32094;SDS011;18608;53.688;10.748;2022-08-11T00:50:59;6.40;;;2.90;;
32094;SDS011;18608;53.688;10.748;2022-08-11T01:00:19;5.57;;;2.70;;
32094;SDS011;18608;53.688;10.748;2022-08-11T01:05:58;4.63;;;3.20;;
32094;SDS011;18608;53.688;10.748;2022-08-11T01:08:45;10.37;;;3.07;;
32094;SDS011;18608;53.688;10.748;2022-08-11T01:28:22;3.37;;;3.07;;
32094;SDS011;18608;53.688;10.748;2022-08-11T01:37:14;2.77;;;2.67;;
32094;SDS011;18608;53.688;10.748;2022-08-11T01:47:58;4.77;;;2.50;;
32094;SDS011;18608;53.688;10.748;2022-08-11T01:56:03;2.47;;;2.27;;
32094;SDS011;18608;53.688;10.748;2022-08-11T02:07:18;5.00;;;3.30;;
32094;SDS011;18608;53.688;10.748;2022-08-11T02:10:26;4.00;;;3.40;;
32094;SDS011;18608;53.688;10.748;2022-08-11T02:22:22;3.87;;;2.73;;
32094;SDS011;18608;53.688;10.748;2022-08-11T02:28:12;8.63;;;3.10;;
32094;SDS011;18608;53.688;10.748;2022-08-11T02:31:11;5.00;;;2.80;;
32094;SDS011;18608;53.688;10.748;2022-08-11T02:34:19;4.43;;;2.53;;
32094;SDS011;18608;53.688;10.748;2022-08-11T02:39:51;6.83;;;3.00;;
32094;SDS011;18608;53.688;10.748;2022-08-11T02:42:25;5.37;;;3.03;;
32094;SDS011;18608;53.688;10.748;2022-08-11T02:51:02;3.60;;;2.50;;
32094;SDS011;18608;53.688;10.748;2022-08-11T02:53:48;6.47;;;3.87;;
32094;SDS011;18608;53.688;10.748;2022-08-11T02:59:22;4.10;;;2.87;;
32094;SDS011;18608;53.688;10.748;2022-08-11T03:07:43;4.83;;;3.70;;
32094;SDS011;18608;53.688;10.748;2022-08-11T03:13:42;3.10;;;2.70;;
32094;SDS011;18608;53.688;10.748;2022-08-11T03:17:12;4.60;;;3.40;;
32094;SDS011;18608;53.688;10.748;2022-08-11T03:19:36;5.30;;;3.37;;
32094;SDS011;18608;53.688;10.748;2022-08-11T03:22:31;4.00;;;3.77;;
32094;SDS011;18608;53.688;10.748;2022-08-11T03:28:11;3.90;;;3.60;;
32094;SDS011;18608;53.688;10.748;2022-08-11T03:46:58;3.97;;;3.47;;
32094;SDS011;18608;53.688;10.748;2022-08-11T03:52:36;5.30;;;4.03;;
32094;SDS011;18608;53.688;10.748;2022-08-11T03:58:34;6.93;;;3.60;;
32094;SDS011;18608;53.688;10.748;2022-08-11T04:31:55;6.20;;;4.60;;
32094;SDS011;18608;53.688;10.748;2022-08-11T04:51:47;3.60;;;2.93;;
32094;SDS011;18608;53.688;10.748;2022-08-11T04:55:04;5.17;;;4.17;;
32094;SDS011;18608;53.688;10.748;2022-08-11T04:58:11;3.73;;;3.43;;
32094;SDS011;18608;53.688;10.748;2022-08-11T05:07:04;7.00;;;3.60;;
32094;SDS011;18608;53.688;10.748;2022-08-11T05:12:35;2.80;;;2.60;;
32094;SDS011;18608;53.688;10.748;2022-08-11T05:15:05;4.20;;;3.80;;
32094;SDS011;18608;53.688;10.748;2022-08-11T05:18:06;3.90;;;2.80;;
32094;SDS011;18608;53.688;10.748;2022-08-11T05:20:57;3.57;;;2.93;;
32094;SDS011;18608;53.688;10.748;2022-08-11T05:24:02;4.53;;;2.93;;
32094;SDS011;18608;53.688;10.748;2022-08-11T05:26:50;2.70;;;2.50;;
32094;SDS011;18608;53.688;10.748;2022-08-11T05:32:21;2.97;;;2.77;;
32094;SDS011;18608;53.688;10.748;2022-08-11T05:35:06;4.27;;;2.57;;
32094;SDS011;18608;53.688;10.748;2022-08-11T05:37:37;3.37;;;3.07;;
32094;SDS011;18608;53.688;10.748;2022-08-11T05:40:27;6.00;;;2.90;;
32094;SDS011;18608;53.688;10.748;2022-08-11T05:43:13;5.20;;;3.20;;
32094;SDS011;18608;53.688;10.748;2022-08-11T05:45:59;3.53;;;2.77;;
32094;SDS011;18608;53.688;10.748;2022-08-11T05:48:45;4.30;;;3.23;;
32094;SDS011;18608;53.688;10.748;2022-08-11T05:51:38;3.17;;;2.90;;
32094;SDS011;18608;53.688;10.748;2022-08-11T05:54:25;3.17;;;2.87;;
32094;SDS011;18608;53.688;10.748;2022-08-11T05:57:17;8.90;;;2.47;;
32094;SDS011;18608;53.688;10.748;2022-08-11T05:59:58;6.30;;;2.57;;
32094;SDS011;18608;53.688;10.748;2022-08-11T06:02:25;5.83;;;2.93;;
32094;SDS011;18608;53.688;10.748;2022-08-11T06:04:58;3.03;;;2.30;;
32094;SDS011;18608;53.688;10.748;2022-08-11T06:07:29;4.30;;;2.33;;
32094;SDS011;18608;53.688;10.748;2022-08-11T06:09:57;2.90;;;2.13;;
32094;SDS011;18608;53.688;10.748;2022-08-11T06:12:24;3.90;;;1.93;;
32094;SDS011;18608;53.688;10.748;2022-08-11T06:14:55;3.43;;;2.20;;
32094;SDS011;18608;53.688;10.748;2022-08-11T06:17:26;2.13;;;2.03;;
32094;SDS011;18608;53.688;10.748;2022-08-11T06:19:58;2.83;;;1.80;;
32094;SDS011;18608;53.688;10.748;2022-08-11T06:22:25;4.40;;;2.33;;
32094;SDS011;18608;53.688;10.748;2022-08-11T06:24:54;4.27;;;2.03;;
32094;SDS011;18608;53.688;10.748;2022-08-11T06:27:22;2.17;;;1.97;;
32094;SDS011;18608;53.688;10.748;2022-08-11T06:29:52;2.97;;;2.63;;
32094;SDS011;18608;53.688;10.748;2022-08-11T06:32:19;4.53;;;2.60;;
32094;SDS011;18608;53.688;10.748;2022-08-11T06:35:06;6.00;;;2.33;;
32094;SDS011;18608;53.688;10.748;2022-08-11T06:37:59;2.13;;;1.93;;
32094;SDS011;18608;53.688;10.748;2022-08-11T06:41:00;3.83;;;2.20;;
32094;SDS011;18608;53.688;10.748;2022-08-11T06:44:10;3.30;;;2.27;;
32094;SDS011;18608;53.688;10.748;2022-08-11T06:46:53;2.20;;;1.93;;
32094;SDS011;18608;53.688;10.748;2022-08-11T06:49:31;2.20;;;2.10;;
32094;SDS011;18608;53.688;10.748;2022-08-11T06:52:18;3.67;;;1.90;;
32094;SDS011;18608;53.688;10.748;2022-08-11T06:54:52;4.63;;;2.20;;
32094;SDS011;18608;53.688;10.748;2022-08-11T06:57:29;8.93;;;3.73;;
32094;SDS011;18608;53.688;10.748;2022-08-11T07:00:21;5.23;;;2.00;;
32094;SDS011;18608;53.688;10.748;2022-08-11T07:03:02;5.10;;;2.43;;
32094;SDS011;18608;53.688;10.748;2022-08-11T07:08:22;12.27;;;2.70;;
32094;SDS011;18608;53.688;10.748;2022-08-11T07:14:30;3.63;;;2.47;;
32094;SDS011;18608;53.688;10.748;2022-08-11T07:17:16;4.93;;;3.50;;
32094;SDS011;18608;53.688;10.748;2022-08-11T07:19:50;2.70;;;2.40;;
32094;SDS011;18608;53.688;10.748;2022-08-11T07:22:37;3.20;;;2.00;;
32094;SDS011;18608;53.688;10.748;2022-08-11T07:25:34;2.60;;;2.20;;
32094;SDS011;18608;53.688;10.748;2022-08-11T07:28:26;1.70;;;1.60;;
32094;SDS011;18608;53.688;10.748;2022-08-11T07:31:16;3.90;;;2.17;;
32094;SDS011;18608;53.688;10.748;2022-08-11T07:36:36;8.93;;;2.30;;
32094;SDS011;18608;53.688;10.748;2022-08-11T07:39:06;4.07;;;1.97;;
32094;SDS011;18608;53.688;10.748;2022-08-11T07:41:36;1.53;;;1.43;;
32094;SDS011;18608;53.688;10.748;2022-08-11T07:44:03;4.97;;;2.03;;
32094;SDS011;18608;53.688;10.748;2022-08-11T07:46:38;2.10;;;1.80;;
32094;SDS011;18608;53.688;10.748;2022-08-11T07:49:25;3.73;;;1.97;;
32094;SDS011;18608;53.688;10.748;2022-08-11T07:52:12;7.77;;;2.10;;
32094;SDS011;18608;53.688;10.748;2022-08-11T07:55:02;4.50;;;2.03;;
32094;SDS011;18608;53.688;10.748;2022-08-11T07:57:33;6.93;;;1.90;;
32094;SDS011;18608;53.688;10.748;2022-08-11T08:00:18;4.43;;;2.37;;
32094;SDS011;18608;53.688;10.748;2022-08-11T08:03:03;10.03;;;1.80;;
32094;SDS011;18608;53.688;10.748;2022-08-11T08:05:48;2.83;;;1.37;;
32094;SDS011;18608;53.688;10.748;2022-08-11T08:08:34;4.73;;;1.83;;
32094;SDS011;18608;53.688;10.748;2022-08-11T08:11:19;3.43;;;2.10;;
32094;SDS011;18608;53.688;10.748;2022-08-11T08:14:06;6.00;;;1.93;;
32094;SDS011;18608;53.688;10.748;2022-08-11T08:16:52;10.73;;;1.77;;
32094;SDS011;18608;53.688;10.748;2022-08-11T08:19:37;2.93;;;2.13;;
32094;SDS011;18608;53.688;10.748;2022-08-11T08:22:08;6.97;;;1.87;;
32094;SDS011;18608;53.688;10.748;2022-08-11T08:24:40;7.30;;;1.73;;
32094;SDS011;18608;53.688;10.748;2022-08-11T08:27:06;2.73;;;1.73;;
32094;SDS011;18608;53.688;10.748;2022-08-11T08:29:34;5.00;;;1.50;;
32094;SDS011;18608;53.688;10.748;2022-08-11T08:32:20;3.47;;;1.80;;
32094;SDS011;18608;53.688;10.748;2022-08-11T08:34:50;2.03;;;1.93;;
32094;SDS011;18608;53.688;10.748;2022-08-11T08:37:17;8.10;;;1.50;;
32094;SDS011;18608;53.688;10.748;2022-08-11T08:39:44;2.17;;;1.80;;
32094;SDS011;18608;53.688;10.748;2022-08-11T08:42:12;1.90;;;1.53;;
32094;SDS011;18608;53.688;10.748;2022-08-11T08:44:44;2.37;;;2.17;;
32094;SDS011;18608;53.688;10.748;2022-08-11T08:47:15;5.20;;;1.83;;
32094;SDS011;18608;53.688;10.748;2022-08-11T08:49:49;3.40;;;1.60;;
32094;SDS011;18608;53.688;10.748;2022-08-11T08:52:22;2.67;;;2.43;;
32094;SDS011;18608;53.688;10.748;2022-08-11T08:54:51;5.90;;;1.90;;
32094;SDS011;18608;53.688;10.748;2022-08-11T08:57:21;1.97;;;1.87;;
32094;SDS011;18608;53.688;10.748;2022-08-11T08:59:47;2.30;;;1.90;;
32094;SDS011;18608;53.688;10.748;2022-08-11T09:02:14;6.20;;;1.60;;
32094;SDS011;18608;53.688;10.748;2022-08-11T09:04:47;6.37;;;2.30;;
32094;SDS011;18608;53.688;10.748;2022-08-11T09:07:17;1.80;;;1.70;;
32094;SDS011;18608;53.688;10.748;2022-08-11T09:09:47;4.10;;;1.47;;
32094;SDS011;18608;53.688;10.748;2022-08-11T09:12:16;3.23;;;1.53;;
32094;SDS011;18608;53.688;10.748;2022-08-11T09:14:44;3.97;;;2.07;;
32094;SDS011;18608;53.688;10.748;2022-08-11T09:18:09;2.27;;;1.33;;
32094;SDS011;18608;53.688;10.748;2022-08-11T09:22:46;2.20;;;1.30;;
32094;SDS011;18608;53.688;10.748;2022-08-11T09:25:32;3.30;;;1.90;;
32094;SDS011;18608;53.688;10.748;2022-08-11T09:28:18;2.43;;;1.20;;
32094;SDS011;18608;53.688;10.748;2022-08-11T09:30:46;3.17;;;1.40;;
32094;SDS011;18608;53.688;10.748;2022-08-11T09:33:17;3.73;;;1.33;;
32094;SDS011;18608;53.688;10.748;2022-08-11T09:35:44;4.60;;;1.50;;
32094;SDS011;18608;53.688;10.748;2022-08-11T09:38:13;1.77;;;1.67;;
32094;SDS011;18608;53.688;10.748;2022-08-11T09:40:59;6.93;;;1.50;;
32094;SDS011;18608;53.688;10.748;2022-08-11T09:43:29;2.50;;;1.83;;
32094;SDS011;18608;53.688;10.748;2022-08-11T09:46:14;2.00;;;1.80;;
32094;SDS011;18608;53.688;10.748;2022-08-11T09:48:44;1.67;;;1.57;;
32094;SDS011;18608;53.688;10.748;2022-08-11T09:51:11;4.20;;;1.60;;
32094;SDS011;18608;53.688;10.748;2022-08-11T09:53:38;6.00;;;1.73;;
32094;SDS011;18608;53.688;10.748;2022-08-11T09:56:12;1.50;;;1.40;;
32094;SDS011;18608;53.688;10.748;2022-08-11T09:58:58;9.80;;;1.30;;
32094;SDS011;18608;53.688;10.748;2022-08-11T10:01:28;3.20;;;2.03;;
32094;SDS011;18608;53.688;10.748;2022-08-11T10:03:59;1.73;;;1.63;;
32094;SDS011;18608;53.688;10.748;2022-08-11T10:06:30;6.27;;;1.80;;
32094;SDS011;18608;53.688;10.748;2022-08-11T10:09:17;3.13;;;1.30;;
32094;SDS011;18608;53.688;10.748;2022-08-11T10:11:46;11.50;;;1.97;;
32094;SDS011;18608;53.688;10.748;2022-08-11T10:14:12;2.67;;;1.23;;
32094;SDS011;18608;53.688;10.748;2022-08-11T10:17:05;1.40;;;1.30;;
32094;SDS011;18608;53.688;10.748;2022-08-11T10:19:32;1.87;;;1.40;;
32094;SDS011;18608;53.688;10.748;2022-08-11T10:22:01;1.30;;;1.20;;
32094;SDS011;18608;53.688;10.748;2022-08-11T10:24:49;2.57;;;1.53;;
32094;SDS011;18608;53.688;10.748;2022-08-11T10:27:35;3.50;;;1.33;;
32094;SDS011;18608;53.688;10.748;2022-08-11T10:30:02;4.30;;;1.70;;
32094;SDS011;18608;53.688;10.748;2022-08-11T10:32:48;1.40;;;1.30;;
32094;SDS011;18608;53.688;10.748;2022-08-11T10:35:33;3.30;;;1.83;;
32094;SDS011;18608;53.688;10.748;2022-08-11T10:38:00;3.53;;;1.30;;
32094;SDS011;18608;53.688;10.748;2022-08-11T10:40:26;3.70;;;1.23;;
32094;SDS011;18608;53.688;10.748;2022-08-11T10:42:54;5.53;;;1.83;;
32094;SDS011;18608;53.688;10.748;2022-08-11T10:45:44;9.53;;;1.83;;
32094;SDS011;18608;53.688;10.748;2022-08-11T10:48:29;3.30;;;1.67;;
32094;SDS011;18608;53.688;10.748;2022-08-11T10:51:00;5.43;;;2.70;;
32094;SDS011;18608;53.688;10.748;2022-08-11T10:53:40;6.10;;;2.07;;
32094;SDS011;18608;53.688;10.748;2022-08-11T10:56:30;1.30;;;1.20;;
32094;SDS011;18608;53.688;10.748;2022-08-11T10:59:20;3.83;;;2.27;;
32094;SDS011;18608;53.688;10.748;2022-08-11T11:01:48;1.37;;;1.20;;
32094;SDS011;18608;53.688;10.748;2022-08-11T11:04:17;2.60;;;1.20;;
32094;SDS011;18608;53.688;10.748;2022-08-11T11:06:51;4.70;;;1.30;;
32094;SDS011;18608;53.688;10.748;2022-08-11T11:09:27;4.27;;;1.30;;
32094;SDS011;18608;53.688;10.748;2022-08-11T11:12:10;2.80;;;1.50;;
32094;SDS011;18608;53.688;10.748;2022-08-11T11:14:58;2.60;;;1.27;;
32094;SDS011;18608;53.688;10.748;2022-08-11T11:17:50;8.43;;;1.20;;
32094;SDS011;18608;53.688;10.748;2022-08-11T11:20:21;3.87;;;1.20;;
32094;SDS011;18608;53.688;10.748;2022-08-11T11:22:50;1.70;;;1.57;;
32094;SDS011;18608;53.688;10.748;2022-08-11T11:30:58;1.93;;;1.30;;
32094;SDS011;18608;53.688;10.748;2022-08-11T11:33:41;1.83;;;1.73;;
32094;SDS011;18608;53.688;10.748;2022-08-11T11:39:09;2.90;;;1.30;;
32094;SDS011;18608;53.688;10.748;2022-08-11T11:41:35;2.03;;;1.47;;
32094;SDS011;18608;53.688;10.748;2022-08-11T11:44:01;1.77;;;1.33;;
32094;SDS011;18608;53.688;10.748;2022-08-11T11:46:28;2.00;;;1.63;;
32094;SDS011;18608;53.688;10.748;2022-08-11T11:48:55;3.93;;;1.60;;
32094;SDS011;18608;53.688;10.748;2022-08-11T11:51:23;1.77;;;1.43;;
32094;SDS011;18608;53.688;10.748;2022-08-11T11:53:50;1.70;;;1.00;;
32094;SDS011;18608;53.688;10.748;2022-08-11T11:56:16;1.30;;;1.20;;
32094;SDS011;18608;53.688;10.748;2022-08-11T11:58:43;3.53;;;1.30;;
32094;SDS011;18608;53.688;10.748;2022-08-11T12:01:29;3.13;;;1.50;;
32094;SDS011;18608;53.688;10.748;2022-08-11T12:03:58;1.30;;;1.20;;
32094;SDS011;18608;53.688;10.748;2022-08-11T12:06:24;4.23;;;1.17;;
32094;SDS011;18608;53.688;10.748;2022-08-11T12:08:52;2.97;;;1.57;;
32094;SDS011;18608;53.688;10.748;2022-08-11T12:11:22;2.03;;;1.60;;
32094;SDS011;18608;53.688;10.748;2022-08-11T12:14:08;1.60;;;1.50;;
32094;SDS011;18608;53.688;10.748;2022-08-11T12:16:36;3.90;;;1.40;;
32094;SDS011;18608;53.688;10.748;2022-08-11T12:19:07;1.43;;;1.20;;
32094;SDS011;18608;53.688;10.748;2022-08-11T12:21:38;6.03;;;1.53;;
32094;SDS011;18608;53.688;10.748;2022-08-11T12:24:31;3.47;;;1.47;;
32094;SDS011;18608;53.688;10.748;2022-08-11T12:27:16;1.40;;;1.30;;
32094;SDS011;18608;53.688;10.748;2022-08-11T12:29:50;1.20;;;1.10;;
32094;SDS011;18608;53.688;10.748;2022-08-11T12:32:33;1.97;;;1.40;;
32094;SDS011;18608;53.688;10.748;2022-08-11T12:35:00;1.90;;;1.20;;
32094;SDS011;18608;53.688;10.748;2022-08-11T12:37:29;2.13;;;1.60;;
32094;SDS011;18608;53.688;10.748;2022-08-11T12:39:59;3.83;;;1.37;;
32094;SDS011;18608;53.688;10.748;2022-08-11T12:42:45;2.50;;;1.23;;
32094;SDS011;18608;53.688;10.748;2022-08-11T12:45:44;7.10;;;1.70;;
32094;SDS011;18608;53.688;10.748;2022-08-11T12:48:20;3.63;;;1.40;;
32094;SDS011;18608;53.688;10.748;2022-08-11T12:51:09;8.43;;;1.67;;
32094;SDS011;18608;53.688;10.748;2022-08-11T12:54:12;6.63;;;1.80;;
32094;SDS011;18608;53.688;10.748;2022-08-11T12:56:45;3.10;;;1.60;;
32094;SDS011;18608;53.688;10.748;2022-08-11T12:59:33;2.30;;;2.07;;
32094;SDS011;18608;53.688;10.748;2022-08-11T13:02:19;7.37;;;2.23;;
32094;SDS011;18608;53.688;10.748;2022-08-11T13:05:07;2.90;;;1.37;;
32094;SDS011;18608;53.688;10.748;2022-08-11T13:07:37;3.33;;;1.60;;
32094;SDS011;18608;53.688;10.748;2022-08-11T13:10:05;5.37;;;1.77;;
32094;SDS011;18608;53.688;10.748;2022-08-11T13:12:32;3.33;;;1.37;;
32094;SDS011;18608;53.688;10.748;2022-08-11T13:15:21;12.60;;;2.17;;
32094;SDS011;18608;53.688;10.748;2022-08-11T13:17:49;2.97;;;1.50;;
32094;SDS011;18608;53.688;10.748;2022-08-11T13:20:18;5.90;;;1.70;;
32094;SDS011;18608;53.688;10.748;2022-08-11T13:22:50;3.30;;;1.57;;
32094;SDS011;18608;53.688;10.748;2022-08-11T13:25:18;3.13;;;1.40;;
32094;SDS011;18608;53.688;10.748;2022-08-11T13:27:47;3.60;;;1.70;;
32094;SDS011;18608;53.688;10.748;2022-08-11T13:30:14;1.30;;;1.20;;
32094;SDS011;18608;53.688;10.748;2022-08-11T13:33:17;1.83;;;1.47;;
32094;SDS011;18608;53.688;10.748;2022-08-11T13:35:44;4.40;;;1.30;;
32094;SDS011;18608;53.688;10.748;2022-08-11T13:38:13;5.80;;;1.70;;
32094;SDS011;18608;53.688;10.748;2022-08-11T13:40:40;3.30;;;1.37;;
32094;SDS011;18608;53.688;10.748;2022-08-11T13:43:06;1.77;;;1.53;;
32094;SDS011;18608;53.688;10.748;2022-08-11T13:45:33;1.90;;;1.30;;
32094;SDS011;18608;53.688;10.748;2022-08-11T13:48:00;1.50;;;1.40;;
32094;SDS011;18608;53.688;10.748;2022-08-11T13:50:30;2.80;;;1.33;;
32094;SDS011;18608;53.688;10.748;2022-08-11T13:53:18;1.40;;;1.30;;
32094;SDS011;18608;53.688;10.748;2022-08-11T13:55:46;3.03;;;1.53;;
32094;SDS011;18608;53.688;10.748;2022-08-11T13:58:12;2.50;;;1.50;;
32094;SDS011;18608;53.688;10.748;2022-08-11T14:00:39;6.57;;;1.67;;
32094;SDS011;18608;53.688;10.748;2022-08-11T14:03:09;8.60;;;2.10;;
32094;SDS011;18608;53.688;10.748;2022-08-11T14:05:38;3.80;;;1.30;;
32094;SDS011;18608;53.688;10.748;2022-08-11T14:08:13;2.00;;;1.80;;
32094;SDS011;18608;53.688;10.748;2022-08-11T14:10:42;7.00;;;1.77;;
32094;SDS011;18608;53.688;10.748;2022-08-11T14:13:12;3.47;;;1.80;;
32094;SDS011;18608;53.688;10.748;2022-08-11T14:16:00;1.13;;;1.10;;
32094;SDS011;18608;53.688;10.748;2022-08-11T14:18:30;3.43;;;1.30;;
32094;SDS011;18608;53.688;10.748;2022-08-11T14:20:57;5.27;;;1.73;;
32094;SDS011;18608;53.688;10.748;2022-08-11T14:23:44;3.93;;;1.50;;
32094;SDS011;18608;53.688;10.748;2022-08-11T14:26:12;2.00;;;1.37;;
32094;SDS011;18608;53.688;10.748;2022-08-11T14:28:59;3.70;;;1.37;;
32094;SDS011;18608;53.688;10.748;2022-08-11T14:31:28;5.43;;;2.30;;
32094;SDS011;18608;53.688;10.748;2022-08-11T14:33:56;1.70;;;1.60;;
32094;SDS011;18608;53.688;10.748;2022-08-11T14:36:27;3.17;;;1.70;;
32094;SDS011;18608;53.688;10.748;2022-08-11T14:38:56;7.63;;;1.97;;
32094;SDS011;18608;53.688;10.748;2022-08-11T14:41:22;8.40;;;1.80;;
32094;SDS011;18608;53.688;10.748;2022-08-11T14:44:08;3.60;;;1.93;;
32094;SDS011;18608;53.688;10.748;2022-08-11T14:46:54;3.10;;;1.20;;
32094;SDS011;18608;53.688;10.748;2022-08-11T14:49:30;5.93;;;1.27;;
32094;SDS011;18608;53.688;10.748;2022-08-11T14:51:59;2.10;;;1.43;;
32094;SDS011;18608;53.688;10.748;2022-08-11T14:54:28;3.40;;;1.50;;
32094;SDS011;18608;53.688;10.748;2022-08-11T14:57:14;1.80;;;1.70;;
32094;SDS011;18608;53.688;10.748;2022-08-11T14:59:41;4.73;;;1.47;;
32094;SDS011;18608;53.688;10.748;2022-08-11T15:02:08;3.90;;;2.37;;
32094;SDS011;18608;53.688;10.748;2022-08-11T15:04:54;3.93;;;1.50;;
32094;SDS011;18608;53.688;10.748;2022-08-11T15:07:21;1.63;;;1.50;;
32094;SDS011;18608;53.688;10.748;2022-08-11T15:09:54;8.00;;;1.60;;
32094;SDS011;18608;53.688;10.748;2022-08-11T15:12:25;1.70;;;1.10;;
32094;SDS011;18608;53.688;10.748;2022-08-11T15:14:51;1.30;;;1.20;;
32094;SDS011;18608;53.688;10.748;2022-08-11T15:17:35;4.87;;;1.20;;
32094;SDS011;18608;53.688;10.748;2022-08-11T15:20:07;3.60;;;1.60;;
32094;SDS011;18608;53.688;10.748;2022-08-11T15:22:54;2.90;;;1.37;;
32094;SDS011;18608;53.688;10.748;2022-08-11T15:25:40;4.87;;;1.67;;
32094;SDS011;18608;53.688;10.748;2022-08-11T15:28:10;7.70;;;1.33;;
32094;SDS011;18608;53.688;10.748;2022-08-11T15:30:56;1.80;;;1.43;;
32094;SDS011;18608;53.688;10.748;2022-08-11T15:33:42;6.60;;;1.20;;
32094;SDS011;18608;53.688;10.748;2022-08-11T15:36:29;1.27;;;1.17;;
32094;SDS011;18608;53.688;10.748;2022-08-11T15:39:26;20.13;;;1.70;;
32094;SDS011;18608;53.688;10.748;2022-08-11T15:41:57;8.50;;;1.30;;
32094;SDS011;18608;53.688;10.748;2022-08-11T15:44:46;8.73;;;1.40;;
32094;SDS011;18608;53.688;10.748;2022-08-11T15:47:43;3.93;;;1.83;;
32094;SDS011;18608;53.688;10.748;2022-08-11T15:50:21;5.47;;;2.20;;
32094;SDS011;18608;53.688;10.748;2022-08-11T15:53:01;1.63;;;1.53;;
32094;SDS011;18608;53.688;10.748;2022-08-11T15:55:31;4.30;;;1.53;;
32094;SDS011;18608;53.688;10.748;2022-08-11T15:58:00;2.13;;;1.43;;
32094;SDS011;18608;53.688;10.748;2022-08-11T16:00:47;1.83;;;1.50;;
32094;SDS011;18608;53.688;10.748;2022-08-11T16:03:41;4.50;;;1.43;;
32094;SDS011;18608;53.688;10.748;2022-08-11T16:06:39;4.07;;;1.33;;
32094;SDS011;18608;53.688;10.748;2022-08-11T16:09:09;2.03;;;1.37;;
32094;SDS011;18608;53.688;10.748;2022-08-11T16:11:37;2.00;;;1.30;;
32094;SDS011;18608;53.688;10.748;2022-08-11T16:14:05;2.97;;;1.40;;
32094;SDS011;18608;53.688;10.748;2022-08-11T16:16:51;5.70;;;2.00;;
32094;SDS011;18608;53.688;10.748;2022-08-11T16:19:18;2.83;;;1.23;;
32094;SDS011;18608;53.688;10.748;2022-08-11T16:21:46;5.47;;;2.00;;
32094;SDS011;18608;53.688;10.748;2022-08-11T16:24:14;5.80;;;1.40;;
32094;SDS011;18608;53.688;10.748;2022-08-11T16:26:43;1.17;;;1.07;;
32094;SDS011;18608;53.688;10.748;2022-08-11T16:29:09;5.27;;;1.77;;
32094;SDS011;18608;53.688;10.748;2022-08-11T16:31:36;10.73;;;1.60;;
32094;SDS011;18608;53.688;10.748;2022-08-11T16:34:04;3.00;;;1.00;;
32094;SDS011;18608;53.688;10.748;2022-08-11T16:36:51;1.23;;;1.10;;
32094;SDS011;18608;53.688;10.748;2022-08-11T16:39:37;2.50;;;1.40;;
32094;SDS011;18608;53.688;10.748;2022-08-11T16:42:04;1.83;;;1.10;;
32094;SDS011;18608;53.688;10.748;2022-08-11T16:44:49;1.37;;;1.23;;
32094;SDS011;18608;53.688;10.748;2022-08-11T16:47:35;9.87;;;1.43;;
32094;SDS011;18608;53.688;10.748;2022-08-11T16:50:01;1.33;;;1.23;;
32094;SDS011;18608;53.688;10.748;2022-08-11T16:52:28;2.07;;;1.00;;
32094;SDS011;18608;53.688;10.748;2022-08-11T16:54:53;2.43;;;1.40;;
32094;SDS011;18608;53.688;10.748;2022-08-11T16:57:21;2.27;;;1.17;;
32094;SDS011;18608;53.688;10.748;2022-08-11T17:00:09;1.17;;;1.03;;
32094;SDS011;18608;53.688;10.748;2022-08-11T17:02:40;4.10;;;1.43;;
32094;SDS011;18608;53.688;10.748;2022-08-11T17:05:28;3.30;;;1.30;;
32094;SDS011;18608;53.688;10.748;2022-08-11T17:08:16;2.10;;;1.20;;
32094;SDS011;18608;53.688;10.748;2022-08-11T17:11:03;1.73;;;1.30;;
32094;SDS011;18608;53.688;10.748;2022-08-11T17:13:54;1.47;;;1.37;;
32094;SDS011;18608;53.688;10.748;2022-08-11T17:16:23;1.73;;;1.63;;
32094;SDS011;18608;53.688;10.748;2022-08-11T17:19:05;2.77;;;1.67;;
32094;SDS011;18608;53.688;10.748;2022-08-11T17:21:42;6.23;;;1.50;;
32094;SDS011;18608;53.688;10.748;2022-08-11T17:24:29;3.57;;;1.27;;
32094;SDS011;18608;53.688;10.748;2022-08-11T17:26:57;1.33;;;1.23;;
32094;SDS011;18608;53.688;10.748;2022-08-11T17:29:32;1.73;;;1.17;;
32094;SDS011;18608;53.688;10.748;2022-08-11T17:32:02;3.43;;;1.67;;
32094;SDS011;18608;53.688;10.748;2022-08-11T17:34:48;1.50;;;1.40;;
32094;SDS011;18608;53.688;10.748;2022-08-11T17:37:35;1.40;;;1.10;;
32094;SDS011;18608;53.688;10.748;2022-08-11T17:40:03;2.80;;;2.60;;
32094;SDS011;18608;53.688;10.748;2022-08-11T17:42:33;1.57;;;1.47;;
32094;SDS011;18608;53.688;10.748;2022-08-11T17:45:19;3.83;;;2.17;;
32094;SDS011;18608;53.688;10.748;2022-08-11T17:48:28;2.20;;;1.60;;
32094;SDS011;18608;53.688;10.748;2022-08-11T17:50:59;1.90;;;1.40;;
32094;SDS011;18608;53.688;10.748;2022-08-11T17:53:26;4.63;;;1.37;;
32094;SDS011;18608;53.688;10.748;2022-08-11T17:56:14;1.97;;;1.50;;
32094;SDS011;18608;53.688;10.748;2022-08-11T17:59:00;1.50;;;1.40;;
32094;SDS011;18608;53.688;10.748;2022-08-11T18:01:47;3.47;;;1.60;;
32094;SDS011;18608;53.688;10.748;2022-08-11T18:04:14;7.70;;;1.33;;
32094;SDS011;18608;53.688;10.748;2022-08-11T18:06:41;2.07;;;1.63;;
32094;SDS011;18608;53.688;10.748;2022-08-11T18:09:14;4.70;;;1.50;;
32094;SDS011;18608;53.688;10.748;2022-08-11T18:12:00;8.03;;;1.40;;
32094;SDS011;18608;53.688;10.748;2022-08-11T18:14:47;2.73;;;1.77;;
32094;SDS011;18608;53.688;10.748;2022-08-11T18:17:33;1.93;;;1.50;;
32094;SDS011;18608;53.688;10.748;2022-08-11T18:20:19;3.33;;;1.67;;
32094;SDS011;18608;53.688;10.748;2022-08-11T18:23:06;1.47;;;1.37;;
32094;SDS011;18608;53.688;10.748;2022-08-11T18:25:53;2.47;;;1.67;;
32094;SDS011;18608;53.688;10.748;2022-08-11T18:28:44;2.70;;;1.67;;
32094;SDS011;18608;53.688;10.748;2022-08-11T18:31:34;4.13;;;1.77;;
32094;SDS011;18608;53.688;10.748;2022-08-11T18:34:28;3.40;;;1.93;;
32094;SDS011;18608;53.688;10.748;2022-08-11T18:37:15;2.90;;;1.60;;
32094;SDS011;18608;53.688;10.748;2022-08-11T18:40:05;1.87;;;1.77;;
32094;SDS011;18608;53.688;10.748;2022-08-11T18:42:52;1.60;;;1.50;;
32094;SDS011;18608;53.688;10.748;2022-08-11T18:45:40;2.10;;;1.27;;
32094;SDS011;18608;53.688;10.748;2022-08-11T18:48:26;1.97;;;1.53;;
32094;SDS011;18608;53.688;10.748;2022-08-11T18:51:14;2.63;;;1.90;;
32094;SDS011;18608;53.688;10.748;2022-08-11T18:54:01;3.67;;;1.50;;
32094;SDS011;18608;53.688;10.748;2022-08-11T18:56:49;2.67;;;1.60;;
32094;SDS011;18608;53.688;10.748;2022-08-11T18:59:36;2.90;;;1.87;;
32094;SDS011;18608;53.688;10.748;2022-08-11T19:02:23;5.03;;;1.50;;